sensor_id;sensor_type;location;lat;lon;timestamp;P1;durP1;ratioP1;P2;durP2;ratioP2
66270;SDS011;53063;39.614;8.814;2022-09-09T00:02:19;9.13;;;2.78;;
66270;SDS011;53063;39.614;8.814;2022-09-09T00:05:14;10.05;;;2.88;;
66270;SDS011;53063;39.614;8.814;2022-09-09T00:07:54;10.10;;;2.95;;
66270;SDS011;53063;39.614;8.814;2022-09-09T00:13:16;13.20;;;2.63;;
66270;SDS011;53063;39.614;8.814;2022-09-09T00:18:44;16.27;;;4.78;;
66270;SDS011;53063;39.614;8.814;2022-09-09T00:27:07;17.35;;;3.90;;
66270;SDS011;53063;39.614;8.814;2022-09-09T00:30:14;11.93;;;3.33;;
66270;SDS011;53063;39.614;8.814;2022-09-09T00:32:55;14.63;;;2.80;;
66270;SDS011;53063;39.614;8.814;2022-09-09T00:35:36;12.38;;;2.85;;
66270;SDS011;53063;39.614;8.814;2022-09-09T00:38:10;4.53;;;1.88;;
66270;SDS011;53063;39.614;8.814;2022-09-09T00:41:01;7.78;;;2.38;;
66270;SDS011;53063;39.614;8.814;2022-09-09T00:43:44;6.90;;;2.03;;
66270;SDS011;53063;39.614;8.814;2022-09-09T00:49:04;8.10;;;1.92;;
66270;SDS011;53063;39.614;8.814;2022-09-09T00:57:40;9.82;;;2.30;;
66270;SDS011;53063;39.614;8.814;2022-09-09T01:00:17;9.75;;;2.58;;
66270;SDS011;53063;39.614;8.814;2022-09-09T01:08:13;10.88;;;2.33;;
66270;SDS011;53063;39.614;8.814;2022-09-09T01:13:55;11.10;;;2.30;;
66270;SDS011;53063;39.614;8.814;2022-09-09T01:16:32;8.23;;;2.67;;
66270;SDS011;53063;39.614;8.814;2022-09-09T01:18:59;9.75;;;2.63;;
66270;SDS011;53063;39.614;8.814;2022-09-09T01:21:34;9.88;;;2.60;;
66270;SDS011;53063;39.614;8.814;2022-09-09T01:24:40;8.70;;;2.90;;
66270;SDS011;53063;39.614;8.814;2022-09-09T01:27:39;12.55;;;2.67;;
66270;SDS011;53063;39.614;8.814;2022-09-09T01:30:11;9.60;;;2.75;;
66270;SDS011;53063;39.614;8.814;2022-09-09T01:32:41;15.98;;;3.80;;
66270;SDS011;53063;39.614;8.814;2022-09-09T01:35:18;8.48;;;2.40;;
66270;SDS011;53063;39.614;8.814;2022-09-09T01:37:58;6.55;;;2.22;;
66270;SDS011;53063;39.614;8.814;2022-09-09T01:40:25;9.00;;;2.42;;
66270;SDS011;53063;39.614;8.814;2022-09-09T01:42:53;10.30;;;2.42;;
66270;SDS011;53063;39.614;8.814;2022-09-09T01:45:19;11.80;;;2.80;;
66270;SDS011;53063;39.614;8.814;2022-09-09T01:47:47;8.30;;;3.05;;
66270;SDS011;53063;39.614;8.814;2022-09-09T01:50:19;9.82;;;2.70;;
66270;SDS011;53063;39.614;8.814;2022-09-09T01:52:46;12.90;;;3.20;;
66270;SDS011;53063;39.614;8.814;2022-09-09T01:55:22;9.50;;;2.33;;
66270;SDS011;53063;39.614;8.814;2022-09-09T02:03:47;10.40;;;2.20;;
66270;SDS011;53063;39.614;8.814;2022-09-09T02:06:34;14.55;;;1.95;;
66270;SDS011;53063;39.614;8.814;2022-09-09T02:09:22;9.13;;;2.03;;
66270;SDS011;53063;39.614;8.814;2022-09-09T02:11:52;5.78;;;2.28;;
66270;SDS011;53063;39.614;8.814;2022-09-09T02:14:47;9.50;;;2.47;;
66270;SDS011;53063;39.614;8.814;2022-09-09T02:17:21;7.60;;;2.33;;
66270;SDS011;53063;39.614;8.814;2022-09-09T02:20:06;16.35;;;6.50;;
66270;SDS011;53063;39.614;8.814;2022-09-09T02:22:43;8.68;;;3.60;;
66270;SDS011;53063;39.614;8.814;2022-09-09T02:25:16;9.70;;;3.13;;
66270;SDS011;53063;39.614;8.814;2022-09-09T02:27:47;8.05;;;2.45;;
66270;SDS011;53063;39.614;8.814;2022-09-09T02:30:15;6.40;;;2.30;;
66270;SDS011;53063;39.614;8.814;2022-09-09T02:32:48;11.50;;;2.63;;
66270;SDS011;53063;39.614;8.814;2022-09-09T02:35:19;11.32;;;2.28;;
66270;SDS011;53063;39.614;8.814;2022-09-09T02:37:50;11.30;;;2.30;;
66270;SDS011;53063;39.614;8.814;2022-09-09T02:40:18;7.18;;;2.40;;
66270;SDS011;53063;39.614;8.814;2022-09-09T02:42:53;6.88;;;1.77;;
66270;SDS011;53063;39.614;8.814;2022-09-09T02:45:23;7.75;;;2.28;;
66270;SDS011;53063;39.614;8.814;2022-09-09T02:53:24;7.10;;;1.95;;
66270;SDS011;53063;39.614;8.814;2022-09-09T02:56:18;11.65;;;1.95;;
66270;SDS011;53063;39.614;8.814;2022-09-09T02:58:48;7.85;;;1.88;;
66270;SDS011;53063;39.614;8.814;2022-09-09T03:01:17;9.23;;;2.10;;
66270;SDS011;53063;39.614;8.814;2022-09-09T03:03:43;8.18;;;2.83;;
66270;SDS011;53063;39.614;8.814;2022-09-09T03:06:14;6.03;;;2.17;;
66270;SDS011;53063;39.614;8.814;2022-09-09T03:08:40;7.60;;;2.05;;
66270;SDS011;53063;39.614;8.814;2022-09-09T03:11:08;13.52;;;2.65;;
66270;SDS011;53063;39.614;8.814;2022-09-09T03:13:36;7.30;;;1.90;;
66270;SDS011;53063;39.614;8.814;2022-09-09T03:16:03;9.80;;;2.00;;
66270;SDS011;53063;39.614;8.814;2022-09-09T03:18:34;7.15;;;2.30;;
66270;SDS011;53063;39.614;8.814;2022-09-09T03:21:00;5.75;;;1.95;;
66270;SDS011;53063;39.614;8.814;2022-09-09T03:23:27;7.38;;;1.88;;
66270;SDS011;53063;39.614;8.814;2022-09-09T03:25:55;10.98;;;2.65;;
66270;SDS011;53063;39.614;8.814;2022-09-09T03:28:32;7.55;;;2.22;;
66270;SDS011;53063;39.614;8.814;2022-09-09T03:31:01;10.02;;;2.08;;
66270;SDS011;53063;39.614;8.814;2022-09-09T03:33:32;10.40;;;2.10;;
66270;SDS011;53063;39.614;8.814;2022-09-09T03:36:00;9.85;;;2.40;;
66270;SDS011;53063;39.614;8.814;2022-09-09T03:38:26;4.45;;;2.20;;
66270;SDS011;53063;39.614;8.814;2022-09-09T03:40:53;5.82;;;1.92;;
66270;SDS011;53063;39.614;8.814;2022-09-09T03:43:21;9.25;;;2.70;;
66270;SDS011;53063;39.614;8.814;2022-09-09T03:45:50;6.47;;;2.20;;
66270;SDS011;53063;39.614;8.814;2022-09-09T03:48:17;7.55;;;2.13;;
66270;SDS011;53063;39.614;8.814;2022-09-09T03:50:44;8.00;;;2.08;;
66270;SDS011;53063;39.614;8.814;2022-09-09T03:53:11;9.57;;;2.80;;
66270;SDS011;53063;39.614;8.814;2022-09-09T03:55:37;8.93;;;2.08;;
66270;SDS011;53063;39.614;8.814;2022-09-09T03:58:03;8.52;;;2.30;;
66270;SDS011;53063;39.614;8.814;2022-09-09T04:00:29;10.20;;;2.38;;
66270;SDS011;53063;39.614;8.814;2022-09-09T04:02:56;7.63;;;2.50;;
66270;SDS011;53063;39.614;8.814;2022-09-09T04:05:22;9.75;;;1.90;;
66270;SDS011;53063;39.614;8.814;2022-09-09T04:07:48;8.25;;;2.33;;
66270;SDS011;53063;39.614;8.814;2022-09-09T04:10:17;8.45;;;2.10;;
66270;SDS011;53063;39.614;8.814;2022-09-09T04:12:43;8.30;;;2.30;;
66270;SDS011;53063;39.614;8.814;2022-09-09T04:15:09;7.10;;;2.65;;
66270;SDS011;53063;39.614;8.814;2022-09-09T04:17:37;10.93;;;2.65;;
66270;SDS011;53063;39.614;8.814;2022-09-09T04:20:04;10.25;;;2.60;;
66270;SDS011;53063;39.614;8.814;2022-09-09T04:22:30;10.18;;;2.38;;
66270;SDS011;53063;39.614;8.814;2022-09-09T04:24:58;11.23;;;2.92;;
66270;SDS011;53063;39.614;8.814;2022-09-09T04:27:24;8.13;;;2.42;;
66270;SDS011;53063;39.614;8.814;2022-09-09T04:29:50;11.07;;;2.63;;
66270;SDS011;53063;39.614;8.814;2022-09-09T04:32:16;7.90;;;2.38;;
66270;SDS011;53063;39.614;8.814;2022-09-09T04:34:42;10.88;;;3.03;;
66270;SDS011;53063;39.614;8.814;2022-09-09T04:37:10;6.82;;;2.17;;
66270;SDS011;53063;39.614;8.814;2022-09-09T04:39:37;5.57;;;2.35;;
66270;SDS011;53063;39.614;8.814;2022-09-09T04:42:04;12.60;;;2.75;;
66270;SDS011;53063;39.614;8.814;2022-09-09T04:44:30;11.63;;;2.30;;
66270;SDS011;53063;39.614;8.814;2022-09-09T04:46:57;10.65;;;2.45;;
66270;SDS011;53063;39.614;8.814;2022-09-09T04:49:23;5.53;;;2.35;;
66270;SDS011;53063;39.614;8.814;2022-09-09T04:51:49;7.85;;;2.13;;
66270;SDS011;53063;39.614;8.814;2022-09-09T04:54:17;8.07;;;2.17;;
66270;SDS011;53063;39.614;8.814;2022-09-09T04:56:44;9.02;;;2.25;;
66270;SDS011;53063;39.614;8.814;2022-09-09T04:59:10;5.85;;;2.15;;
66270;SDS011;53063;39.614;8.814;2022-09-09T05:01:43;6.40;;;1.90;;
66270;SDS011;53063;39.614;8.814;2022-09-09T05:04:10;13.25;;;2.22;;
66270;SDS011;53063;39.614;8.814;2022-09-09T05:06:36;8.27;;;2.35;;
66270;SDS011;53063;39.614;8.814;2022-09-09T05:09:03;5.72;;;2.58;;
66270;SDS011;53063;39.614;8.814;2022-09-09T05:11:30;7.78;;;2.42;;
66270;SDS011;53063;39.614;8.814;2022-09-09T05:14:29;7.30;;;2.38;;
66270;SDS011;53063;39.614;8.814;2022-09-09T05:16:55;11.65;;;2.30;;
66270;SDS011;53063;39.614;8.814;2022-09-09T05:19:23;7.45;;;2.13;;
66270;SDS011;53063;39.614;8.814;2022-09-09T05:21:51;5.10;;;1.80;;
66270;SDS011;53063;39.614;8.814;2022-09-09T05:24:22;6.97;;;2.30;;
66270;SDS011;53063;39.614;8.814;2022-09-09T05:26:53;6.47;;;2.10;;
66270;SDS011;53063;39.614;8.814;2022-09-09T05:29:23;7.40;;;2.17;;
66270;SDS011;53063;39.614;8.814;2022-09-09T05:31:49;8.02;;;2.20;;
66270;SDS011;53063;39.614;8.814;2022-09-09T05:34:18;11.55;;;2.30;;
66270;SDS011;53063;39.614;8.814;2022-09-09T05:36:46;5.13;;;2.45;;
66270;SDS011;53063;39.614;8.814;2022-09-09T05:39:13;6.72;;;2.08;;
66270;SDS011;53063;39.614;8.814;2022-09-09T05:41:40;8.20;;;2.58;;
66270;SDS011;53063;39.614;8.814;2022-09-09T05:44:07;5.65;;;2.00;;
66270;SDS011;53063;39.614;8.814;2022-09-09T05:46:37;4.60;;;2.03;;
66270;SDS011;53063;39.614;8.814;2022-09-09T05:49:03;5.90;;;2.30;;
66270;SDS011;53063;39.614;8.814;2022-09-09T05:51:31;10.50;;;2.10;;
66270;SDS011;53063;39.614;8.814;2022-09-09T05:54:02;5.50;;;2.05;;
66270;SDS011;53063;39.614;8.814;2022-09-09T05:56:32;9.93;;;2.25;;
66270;SDS011;53063;39.614;8.814;2022-09-09T05:58:59;11.80;;;2.83;;
66270;SDS011;53063;39.614;8.814;2022-09-09T06:01:33;9.65;;;3.00;;
66270;SDS011;53063;39.614;8.814;2022-09-09T06:04:01;6.63;;;2.47;;
66270;SDS011;53063;39.614;8.814;2022-09-09T06:06:31;6.50;;;2.05;;
66270;SDS011;53063;39.614;8.814;2022-09-09T06:09:04;6.30;;;2.33;;
66270;SDS011;53063;39.614;8.814;2022-09-09T06:11:34;7.10;;;2.47;;
66270;SDS011;53063;39.614;8.814;2022-09-09T06:14:02;6.93;;;2.33;;
66270;SDS011;53063;39.614;8.814;2022-09-09T06:16:30;5.30;;;2.25;;
66270;SDS011;53063;39.614;8.814;2022-09-09T06:18:58;7.53;;;2.10;;
66270;SDS011;53063;39.614;8.814;2022-09-09T06:21:27;6.22;;;2.30;;
66270;SDS011;53063;39.614;8.814;2022-09-09T06:23:56;9.55;;;2.60;;
66270;SDS011;53063;39.614;8.814;2022-09-09T06:26:24;10.02;;;2.60;;
66270;SDS011;53063;39.614;8.814;2022-09-09T06:28:53;9.20;;;2.30;;
66270;SDS011;53063;39.614;8.814;2022-09-09T06:31:21;9.25;;;2.38;;
66270;SDS011;53063;39.614;8.814;2022-09-09T06:33:49;9.15;;;2.70;;
66270;SDS011;53063;39.614;8.814;2022-09-09T06:36:19;6.80;;;2.00;;
66270;SDS011;53063;39.614;8.814;2022-09-09T06:38:50;11.75;;;2.20;;
66270;SDS011;53063;39.614;8.814;2022-09-09T06:41:18;11.63;;;2.30;;
66270;SDS011;53063;39.614;8.814;2022-09-09T06:43:46;10.48;;;2.08;;
66270;SDS011;53063;39.614;8.814;2022-09-09T06:48:39;7.30;;;2.28;;
66270;SDS011;53063;39.614;8.814;2022-09-09T06:53:40;11.48;;;2.33;;
66270;SDS011;53063;39.614;8.814;2022-09-09T06:58:40;9.38;;;2.00;;
66270;SDS011;53063;39.614;8.814;2022-09-09T07:01:12;9.38;;;2.72;;
66270;SDS011;53063;39.614;8.814;2022-09-09T07:03:41;4.93;;;2.03;;
66270;SDS011;53063;39.614;8.814;2022-09-09T07:06:09;19.30;;;2.38;;
66270;SDS011;53063;39.614;8.814;2022-09-09T07:08:50;16.55;;;2.42;;
66270;SDS011;53063;39.614;8.814;2022-09-09T07:11:17;6.07;;;2.33;;
66270;SDS011;53063;39.614;8.814;2022-09-09T07:13:45;5.53;;;2.10;;
66270;SDS011;53063;39.614;8.814;2022-09-09T07:16:12;4.93;;;2.20;;
66270;SDS011;53063;39.614;8.814;2022-09-09T07:18:40;6.57;;;2.00;;
66270;SDS011;53063;39.614;8.814;2022-09-09T07:21:08;10.90;;;1.80;;
66270;SDS011;53063;39.614;8.814;2022-09-09T07:23:35;8.95;;;1.98;;
66270;SDS011;53063;39.614;8.814;2022-09-09T07:26:02;6.97;;;2.00;;
66270;SDS011;53063;39.614;8.814;2022-09-09T07:28:32;11.27;;;2.17;;
66270;SDS011;53063;39.614;8.814;2022-09-09T07:31:00;4.55;;;1.55;;
66270;SDS011;53063;39.614;8.814;2022-09-09T07:33:32;4.28;;;1.45;;
66270;SDS011;53063;39.614;8.814;2022-09-09T07:36:18;6.88;;;1.80;;
66270;SDS011;53063;39.614;8.814;2022-09-09T07:38:50;9.00;;;1.98;;
66270;SDS011;53063;39.614;8.814;2022-09-09T07:41:20;5.95;;;1.98;;
66270;SDS011;53063;39.614;8.814;2022-09-09T07:43:50;6.95;;;2.20;;
66270;SDS011;53063;39.614;8.814;2022-09-09T07:46:21;5.30;;;1.80;;
66270;SDS011;53063;39.614;8.814;2022-09-09T07:48:50;9.20;;;2.05;;
66270;SDS011;53063;39.614;8.814;2022-09-09T07:51:34;9.45;;;1.90;;
66270;SDS011;53063;39.614;8.814;2022-09-09T07:54:05;7.60;;;2.00;;
66270;SDS011;53063;39.614;8.814;2022-09-09T07:56:36;9.48;;;2.30;;
66270;SDS011;53063;39.614;8.814;2022-09-09T07:59:03;15.70;;;1.98;;
66270;SDS011;53063;39.614;8.814;2022-09-09T08:04:09;12.25;;;2.47;;
66270;SDS011;53063;39.614;8.814;2022-09-09T08:06:41;6.22;;;1.73;;
66270;SDS011;53063;39.614;8.814;2022-09-09T08:09:17;8.63;;;1.90;;
66270;SDS011;53063;39.614;8.814;2022-09-09T08:11:45;5.88;;;2.28;;
66270;SDS011;53063;39.614;8.814;2022-09-09T08:14:12;4.70;;;1.63;;
66270;SDS011;53063;39.614;8.814;2022-09-09T08:16:41;9.10;;;1.88;;
66270;SDS011;53063;39.614;8.814;2022-09-09T08:19:13;8.77;;;1.85;;
66270;SDS011;53063;39.614;8.814;2022-09-09T08:21:40;6.35;;;1.80;;
66270;SDS011;53063;39.614;8.814;2022-09-09T08:24:09;7.45;;;1.85;;
66270;SDS011;53063;39.614;8.814;2022-09-09T08:26:37;4.25;;;2.03;;
66270;SDS011;53063;39.614;8.814;2022-09-09T08:29:05;5.28;;;1.92;;
66270;SDS011;53063;39.614;8.814;2022-09-09T08:31:34;7.30;;;1.40;;
66270;SDS011;53063;39.614;8.814;2022-09-09T08:34:08;6.30;;;1.55;;
66270;SDS011;53063;39.614;8.814;2022-09-09T08:36:40;6.15;;;2.03;;
66270;SDS011;53063;39.614;8.814;2022-09-09T08:39:09;24.33;;;4.82;;
66270;SDS011;53063;39.614;8.814;2022-09-09T08:52:19;5.50;;;1.90;;
66270;SDS011;53063;39.614;8.814;2022-09-09T08:54:49;3.85;;;1.50;;
66270;SDS011;53063;39.614;8.814;2022-09-09T08:57:26;4.25;;;1.65;;
66270;SDS011;53063;39.614;8.814;2022-09-09T08:59:54;4.47;;;1.60;;
66270;SDS011;53063;39.614;8.814;2022-09-09T09:05:54;8.85;;;2.65;;
66270;SDS011;53063;39.614;8.814;2022-09-09T09:09:06;4.43;;;1.33;;
66270;SDS011;53063;39.614;8.814;2022-09-09T09:11:33;5.90;;;1.80;;
66270;SDS011;53063;39.614;8.814;2022-09-09T09:19:29;7.90;;;1.90;;
66270;SDS011;53063;39.614;8.814;2022-09-09T09:22:03;3.60;;;1.70;;
66270;SDS011;53063;39.614;8.814;2022-09-09T09:27:44;2.90;;;1.58;;
66270;SDS011;53063;39.614;8.814;2022-09-09T09:30:22;7.97;;;2.83;;
66270;SDS011;53063;39.614;8.814;2022-09-09T09:33:27;9.55;;;1.77;;
66270;SDS011;53063;39.614;8.814;2022-09-09T09:36:05;4.15;;;1.42;;
66270;SDS011;53063;39.614;8.814;2022-09-09T09:38:35;4.57;;;1.30;;
66270;SDS011;53063;39.614;8.814;2022-09-09T09:41:02;3.03;;;1.20;;
66270;SDS011;53063;39.614;8.814;2022-09-09T09:43:33;4.07;;;1.23;;
66270;SDS011;53063;39.614;8.814;2022-09-09T09:46:17;6.20;;;1.40;;
66270;SDS011;53063;39.614;8.814;2022-09-09T09:48:56;3.05;;;1.02;;
66270;SDS011;53063;39.614;8.814;2022-09-09T09:51:28;4.10;;;1.30;;
66270;SDS011;53063;39.614;8.814;2022-09-09T09:54:07;12.43;;;1.73;;
66270;SDS011;53063;39.614;8.814;2022-09-09T09:56:52;2.30;;;1.00;;
66270;SDS011;53063;39.614;8.814;2022-09-09T09:59:24;5.55;;;1.05;;
66270;SDS011;53063;39.614;8.814;2022-09-09T10:02:36;3.80;;;1.10;;
66270;SDS011;53063;39.614;8.814;2022-09-09T10:05:22;2.55;;;0.95;;
66270;SDS011;53063;39.614;8.814;2022-09-09T10:19:20;3.72;;;1.00;;
66270;SDS011;53063;39.614;8.814;2022-09-09T10:27:47;3.17;;;1.10;;
66270;SDS011;53063;39.614;8.814;2022-09-09T10:31:17;5.45;;;1.27;;
66270;SDS011;53063;39.614;8.814;2022-09-09T10:33:44;2.88;;;1.20;;
66270;SDS011;53063;39.614;8.814;2022-09-09T10:36:20;3.63;;;1.05;;
66270;SDS011;53063;39.614;8.814;2022-09-09T10:52:44;2.38;;;1.23;;
66270;SDS011;53063;39.614;8.814;2022-09-09T10:55:40;2.00;;;0.80;;
66270;SDS011;53063;39.614;8.814;2022-09-09T10:58:18;4.13;;;1.38;;
66270;SDS011;53063;39.614;8.814;2022-09-09T11:00:53;3.53;;;1.25;;
66270;SDS011;53063;39.614;8.814;2022-09-09T11:03:24;3.05;;;1.13;;
66270;SDS011;53063;39.614;8.814;2022-09-09T11:06:00;4.20;;;1.40;;
66270;SDS011;53063;39.614;8.814;2022-09-09T11:08:37;3.45;;;1.02;;
66270;SDS011;53063;39.614;8.814;2022-09-09T11:13:42;2.72;;;1.10;;
66270;SDS011;53063;39.614;8.814;2022-09-09T11:16:29;4.07;;;1.10;;
66270;SDS011;53063;39.614;8.814;2022-09-09T11:33:31;4.10;;;1.00;;
66270;SDS011;53063;39.614;8.814;2022-09-09T11:38:51;3.97;;;1.00;;
66270;SDS011;53063;39.614;8.814;2022-09-09T11:41:22;1.67;;;0.85;;
66270;SDS011;53063;39.614;8.814;2022-09-09T11:43:52;2.33;;;0.82;;
66270;SDS011;53063;39.614;8.814;2022-09-09T11:46:39;1.98;;;0.85;;
66270;SDS011;53063;39.614;8.814;2022-09-09T11:49:21;1.35;;;0.70;;
66270;SDS011;53063;39.614;8.814;2022-09-09T11:51:50;4.13;;;0.82;;
66270;SDS011;53063;39.614;8.814;2022-09-09T11:54:32;1.63;;;0.80;;
66270;SDS011;53063;39.614;8.814;2022-09-09T11:57:22;4.22;;;0.90;;
66270;SDS011;53063;39.614;8.814;2022-09-09T12:00:28;2.10;;;0.70;;
66270;SDS011;53063;39.614;8.814;2022-09-09T12:06:41;1.88;;;1.00;;
66270;SDS011;53063;39.614;8.814;2022-09-09T12:09:08;2.10;;;0.75;;
66270;SDS011;53063;39.614;8.814;2022-09-09T12:17:22;2.97;;;0.75;;
66270;SDS011;53063;39.614;8.814;2022-09-09T12:28:17;2.50;;;0.65;;
66270;SDS011;53063;39.614;8.814;2022-09-09T12:31:10;0.90;;;0.80;;
66270;SDS011;53063;39.614;8.814;2022-09-09T12:34:09;4.70;;;1.00;;
66270;SDS011;53063;39.614;8.814;2022-09-09T12:36:39;1.42;;;0.70;;
66270;SDS011;53063;39.614;8.814;2022-09-09T12:42:17;1.02;;;0.80;;
66270;SDS011;53063;39.614;8.814;2022-09-09T12:45:19;3.97;;;0.80;;
66270;SDS011;53063;39.614;8.814;2022-09-09T12:47:59;1.75;;;0.90;;
66270;SDS011;53063;39.614;8.814;2022-09-09T12:50:31;0.60;;;0.50;;
66270;SDS011;53063;39.614;8.814;2022-09-09T12:53:11;2.65;;;1.23;;
66270;SDS011;53063;39.614;8.814;2022-09-09T12:55:50;2.72;;;0.80;;
66270;SDS011;53063;39.614;8.814;2022-09-09T12:58:30;3.47;;;0.98;;
66270;SDS011;53063;39.614;8.814;2022-09-09T13:01:00;1.67;;;0.90;;
66270;SDS011;53063;39.614;8.814;2022-09-09T13:03:30;4.25;;;0.98;;
66270;SDS011;53063;39.614;8.814;2022-09-09T13:05:58;1.42;;;1.00;;
66270;SDS011;53063;39.614;8.814;2022-09-09T13:08:37;2.83;;;1.10;;
66270;SDS011;53063;39.614;8.814;2022-09-09T13:11:04;1.50;;;0.75;;
66270;SDS011;53063;39.614;8.814;2022-09-09T13:13:37;1.10;;;0.70;;
66270;SDS011;53063;39.614;8.814;2022-09-09T13:16:06;0.95;;;0.80;;
66270;SDS011;53063;39.614;8.814;2022-09-09T13:18:44;1.67;;;0.90;;
66270;SDS011;53063;39.614;8.814;2022-09-09T13:21:11;5.70;;;0.90;;
66270;SDS011;53063;39.614;8.814;2022-09-09T13:23:38;2.33;;;0.90;;
66270;SDS011;53063;39.614;8.814;2022-09-09T13:26:05;1.50;;;0.80;;
66270;SDS011;53063;39.614;8.814;2022-09-09T13:28:53;1.70;;;0.70;;
66270;SDS011;53063;39.614;8.814;2022-09-09T13:31:21;2.95;;;1.00;;
66270;SDS011;53063;39.614;8.814;2022-09-09T13:33:54;2.58;;;0.98;;
66270;SDS011;53063;39.614;8.814;2022-09-09T13:36:30;7.93;;;1.65;;
66270;SDS011;53063;39.614;8.814;2022-09-09T13:38:58;9.35;;;1.33;;
66270;SDS011;53063;39.614;8.814;2022-09-09T13:41:28;5.10;;;0.90;;
66270;SDS011;53063;39.614;8.814;2022-09-09T13:43:57;1.98;;;0.77;;
66270;SDS011;53063;39.614;8.814;2022-09-09T13:51:40;2.20;;;0.90;;
66270;SDS011;53063;39.614;8.814;2022-09-09T13:54:09;1.08;;;0.60;;
66270;SDS011;53063;39.614;8.814;2022-09-09T13:56:36;3.10;;;1.10;;
66270;SDS011;53063;39.614;8.814;2022-09-09T13:59:04;4.55;;;1.05;;
66270;SDS011;53063;39.614;8.814;2022-09-09T14:01:34;5.55;;;1.00;;
66270;SDS011;53063;39.614;8.814;2022-09-09T14:04:00;1.23;;;0.80;;
66270;SDS011;53063;39.614;8.814;2022-09-09T14:06:26;1.80;;;0.80;;
66270;SDS011;53063;39.614;8.814;2022-09-09T14:08:54;1.83;;;0.73;;
66270;SDS011;53063;39.614;8.814;2022-09-09T14:11:20;3.88;;;0.80;;
66270;SDS011;53063;39.614;8.814;2022-09-09T14:13:50;3.13;;;0.77;;
66270;SDS011;53063;39.614;8.814;2022-09-09T14:16:16;2.75;;;0.68;;
66270;SDS011;53063;39.614;8.814;2022-09-09T14:18:46;2.42;;;0.60;;
66270;SDS011;53063;39.614;8.814;2022-09-09T14:21:12;2.72;;;0.77;;
66270;SDS011;53063;39.614;8.814;2022-09-09T14:23:38;1.45;;;0.70;;
66270;SDS011;53063;39.614;8.814;2022-09-09T14:26:05;1.52;;;0.70;;
66270;SDS011;53063;39.614;8.814;2022-09-09T14:28:32;2.70;;;0.65;;
66270;SDS011;53063;39.614;8.814;2022-09-09T14:30:59;4.72;;;0.90;;
66270;SDS011;53063;39.614;8.814;2022-09-09T14:33:26;1.85;;;0.85;;
66270;SDS011;53063;39.614;8.814;2022-09-09T14:35:57;2.15;;;0.60;;
66270;SDS011;53063;39.614;8.814;2022-09-09T14:38:25;1.27;;;0.80;;
66270;SDS011;53063;39.614;8.814;2022-09-09T14:40:54;1.45;;;0.70;;
66270;SDS011;53063;39.614;8.814;2022-09-09T14:43:21;1.13;;;0.60;;
66270;SDS011;53063;39.614;8.814;2022-09-09T14:45:47;3.42;;;0.80;;
66270;SDS011;53063;39.614;8.814;2022-09-09T14:48:13;3.08;;;0.80;;
66270;SDS011;53063;39.614;8.814;2022-09-09T14:50:40;3.20;;;0.90;;
66270;SDS011;53063;39.614;8.814;2022-09-09T14:53:07;2.17;;;0.75;;
66270;SDS011;53063;39.614;8.814;2022-09-09T14:55:34;3.97;;;1.00;;
66270;SDS011;53063;39.614;8.814;2022-09-09T14:58:00;1.23;;;1.00;;
66270;SDS011;53063;39.614;8.814;2022-09-09T15:00:26;2.35;;;0.75;;
66270;SDS011;53063;39.614;8.814;2022-09-09T15:02:55;1.38;;;0.73;;
66270;SDS011;53063;39.614;8.814;2022-09-09T15:05:21;3.25;;;1.02;;
66270;SDS011;53063;39.614;8.814;2022-09-09T15:07:49;1.30;;;0.90;;
66270;SDS011;53063;39.614;8.814;2022-09-09T15:10:15;2.17;;;0.77;;
66270;SDS011;53063;39.614;8.814;2022-09-09T15:12:42;3.92;;;0.80;;
66270;SDS011;53063;39.614;8.814;2022-09-09T15:15:09;1.48;;;0.57;;
66270;SDS011;53063;39.614;8.814;2022-09-09T15:17:35;2.47;;;0.65;;
66270;SDS011;53063;39.614;8.814;2022-09-09T15:20:02;1.95;;;0.93;;
66270;SDS011;53063;39.614;8.814;2022-09-09T15:22:30;2.63;;;0.70;;
66270;SDS011;53063;39.614;8.814;2022-09-09T15:24:57;1.58;;;0.98;;
66270;SDS011;53063;39.614;8.814;2022-09-09T15:27:23;3.42;;;0.98;;
66270;SDS011;53063;39.614;8.814;2022-09-09T15:29:49;1.08;;;0.60;;
66270;SDS011;53063;39.614;8.814;2022-09-09T15:32:17;3.58;;;0.75;;
66270;SDS011;53063;39.614;8.814;2022-09-09T15:34:43;1.70;;;0.70;;
66270;SDS011;53063;39.614;8.814;2022-09-09T15:37:09;1.63;;;0.60;;
66270;SDS011;53063;39.614;8.814;2022-09-09T15:39:38;4.38;;;1.05;;
66270;SDS011;53063;39.614;8.814;2022-09-09T15:42:05;2.60;;;0.70;;
66270;SDS011;53063;39.614;8.814;2022-09-09T15:44:41;3.47;;;0.70;;
66270;SDS011;53063;39.614;8.814;2022-09-09T15:47:07;2.92;;;0.70;;
66270;SDS011;53063;39.614;8.814;2022-09-09T15:49:37;4.22;;;0.68;;
66270;SDS011;53063;39.614;8.814;2022-09-09T15:52:04;1.25;;;0.75;;
66270;SDS011;53063;39.614;8.814;2022-09-09T15:54:31;6.50;;;0.80;;
66270;SDS011;53063;39.614;8.814;2022-09-09T15:57:00;2.15;;;0.80;;
66270;SDS011;53063;39.614;8.814;2022-09-09T15:59:29;3.70;;;0.65;;
66270;SDS011;53063;39.614;8.814;2022-09-09T16:01:56;4.85;;;0.80;;
66270;SDS011;53063;39.614;8.814;2022-09-09T16:04:25;1.30;;;0.70;;
66270;SDS011;53063;39.614;8.814;2022-09-09T16:06:59;1.80;;;0.85;;
66270;SDS011;53063;39.614;8.814;2022-09-09T16:09:27;3.67;;;0.73;;
66270;SDS011;53063;39.614;8.814;2022-09-09T16:11:55;3.17;;;0.80;;
66270;SDS011;53063;39.614;8.814;2022-09-09T16:14:23;3.38;;;0.60;;
66270;SDS011;53063;39.614;8.814;2022-09-09T16:16:50;1.98;;;0.73;;
66270;SDS011;53063;39.614;8.814;2022-09-09T16:19:17;3.22;;;0.60;;
66270;SDS011;53063;39.614;8.814;2022-09-09T16:21:45;2.22;;;0.65;;
66270;SDS011;53063;39.614;8.814;2022-09-09T16:24:14;0.57;;;0.55;;
66270;SDS011;53063;39.614;8.814;2022-09-09T16:26:42;3.22;;;0.70;;
66270;SDS011;53063;39.614;8.814;2022-09-09T16:29:12;2.60;;;0.68;;
66270;SDS011;53063;39.614;8.814;2022-09-09T16:31:39;1.30;;;0.60;;
66270;SDS011;53063;39.614;8.814;2022-09-09T16:34:06;2.83;;;0.77;;
66270;SDS011;53063;39.614;8.814;2022-09-09T16:36:34;3.67;;;0.70;;
66270;SDS011;53063;39.614;8.814;2022-09-09T16:39:05;2.75;;;0.88;;
66270;SDS011;53063;39.614;8.814;2022-09-09T16:41:34;1.92;;;0.70;;
66270;SDS011;53063;39.614;8.814;2022-09-09T16:44:02;3.17;;;0.77;;
66270;SDS011;53063;39.614;8.814;2022-09-09T16:46:30;3.15;;;0.80;;
66270;SDS011;53063;39.614;8.814;2022-09-09T16:48:59;3.00;;;0.77;;
66270;SDS011;53063;39.614;8.814;2022-09-09T16:51:30;5.22;;;1.80;;
66270;SDS011;53063;39.614;8.814;2022-09-09T16:53:59;1.65;;;1.13;;
66270;SDS011;53063;39.614;8.814;2022-09-09T16:56:27;3.08;;;0.90;;
66270;SDS011;53063;39.614;8.814;2022-09-09T16:58:56;1.58;;;0.70;;
66270;SDS011;53063;39.614;8.814;2022-09-09T17:01:23;2.00;;;0.70;;
66270;SDS011;53063;39.614;8.814;2022-09-09T17:03:57;2.72;;;0.80;;
66270;SDS011;53063;39.614;8.814;2022-09-09T17:06:26;4.88;;;0.80;;
66270;SDS011;53063;39.614;8.814;2022-09-09T17:08:54;1.70;;;0.70;;
66270;SDS011;53063;39.614;8.814;2022-09-09T17:11:26;3.42;;;0.88;;
66270;SDS011;53063;39.614;8.814;2022-09-09T17:13:54;1.77;;;0.50;;
66270;SDS011;53063;39.614;8.814;2022-09-09T17:16:21;2.92;;;0.65;;
66270;SDS011;53063;39.614;8.814;2022-09-09T17:18:50;2.28;;;0.80;;
66270;SDS011;53063;39.614;8.814;2022-09-09T17:21:18;1.48;;;0.77;;
66270;SDS011;53063;39.614;8.814;2022-09-09T17:23:46;5.30;;;1.20;;
66270;SDS011;53063;39.614;8.814;2022-09-09T17:26:13;1.60;;;0.77;;
66270;SDS011;53063;39.614;8.814;2022-09-09T17:28:41;4.13;;;0.80;;
66270;SDS011;53063;39.614;8.814;2022-09-09T17:31:09;3.40;;;1.05;;
66270;SDS011;53063;39.614;8.814;2022-09-09T17:33:37;1.30;;;0.70;;
66270;SDS011;53063;39.614;8.814;2022-09-09T17:36:11;1.73;;;0.70;;
66270;SDS011;53063;39.614;8.814;2022-09-09T17:38:42;3.53;;;0.75;;
66270;SDS011;53063;39.614;8.814;2022-09-09T17:41:16;3.83;;;0.80;;
66270;SDS011;53063;39.614;8.814;2022-09-09T17:43:44;5.10;;;0.88;;